Vlieland Island, Netherlands
Current Conditions -  °F | °C
As of 10:55 PM on Wednesday 28 Jan 2015 (Local Time) from EHVL Reporting Station
Broken Clouds Broken Clouds  
Wind Chill: 28°   Ceiling: 3700
Heat Index: 41°   Visibility: 6mi
Dew Point: 32°   Wind: 44mph
Humidity: 70%   Direction: 280°W
Pressure: 29.26"   Gusts: NA
Location:  53.25°N, 4.92°E
Report Text: EHVL 282155Z AUTO 28038KT 9999 FEW029 SCT033 BKN037 05/M00 Q0991 BLU
Loading
Personal Weather Stations






























Interactive Weather Map New forecast layout! Learn more

10-Day Weather Forecast

Advertisements
Track Severe Weather on mobile